Time;durP1;ratioP1;P1;durP2;ratioP2;P2;SDS_P1;SDS_P2;PMS_P1;PMS_P2;Temp;Humidity;BMP_temperature;BMP_pressure;BME280_temperature;BME280_humidity;BME280_pressure;Samples;Min_cycle;Max_cycle;Signal;HPM_P1;HPM_P2
2022/09/07 00:01:43;;;;;;;;;;;20.80;42.00;;;;;;458669;260;1231;-51
2022/09/07 00:03:44;;;;;;;;;;;20.90;42.00;;;;;;458785;260;1096;-51
2022/09/07 00:05:46;;;;;;;;;;;20.90;42.00;;;;;;458510;260;1202;-51
2022/09/07 00:07:47;;;;;;;;;;;20.90;42.00;;;;;;458784;260;1128;-50
2022/09/07 00:09:50;;;;;;;;;;;20.90;42.00;;;;;;458652;260;1256;-51
2022/09/07 00:11:50;;;;;;;;;;;20.90;42.00;;;;;;452550;263;1604;-51
2022/09/07 00:13:51;;;;;;;;;;;20.90;42.00;;;;;;458372;260;1129;-51
2022/09/07 00:15:52;;;;;;;;;;;20.90;41.90;;;;;;458725;260;2202;-50
2022/09/07 00:17:54;;;;;;;;;;;20.90;41.90;;;;;;458447;260;1411;-51
2022/09/07 00:19:55;;;;;;;;;;;20.90;42.00;;;;;;458507;260;1306;-51
2022/09/07 00:21:56;;;;;;;;;;;20.90;42.10;;;;;;452805;263;1243;-51
2022/09/07 00:23:58;;;;;;;;;;;20.80;42.20;;;;;;458737;260;1192;-51
2022/09/07 00:25:59;;;;;;;;;;;20.80;42.20;;;;;;458751;260;1329;-50
2022/09/07 00:28:01;;;;;;;;;;;20.80;42.10;;;;;;458603;260;1460;-51
2022/09/07 00:30:02;;;;;;;;;;;20.90;42.10;;;;;;458736;260;1339;-51
2022/09/07 00:32:04;;;;;;;;;;;20.90;42.10;;;;;;458654;260;1221;-51
2022/09/07 00:34:05;;;;;;;;;;;20.90;42.10;;;;;;458764;260;1320;-51
2022/09/07 00:36:06;;;;;;;;;;;20.90;42.00;;;;;;458313;260;2206;-51
2022/09/07 00:38:08;;;;;;;;;;;20.90;42.10;;;;;;458742;256;1228;-50
2022/09/07 00:40:09;;;;;;;;;;;20.90;42.10;;;;;;458457;260;1264;-51
2022/09/07 00:42:11;;;;;;;;;;;20.90;42.10;;;;;;458341;260;1226;-51
2022/09/07 00:44:12;;;;;;;;;;;20.90;41.90;;;;;;458347;260;1268;-51
2022/09/07 00:46:13;;;;;;;;;;;20.90;42.00;;;;;;458342;260;1396;-50
2022/09/07 00:48:15;;;;;;;;;;;20.90;42.00;;;;;;458453;260;1251;-51
2022/09/07 00:50:16;;;;;;;;;;;20.90;42.00;;;;;;452696;263;1523;-51
2022/09/07 00:52:17;;;;;;;;;;;20.90;42.00;;;;;;458739;260;1204;-49
2022/09/07 00:54:19;;;;;;;;;;;20.90;42.00;;;;;;458735;260;1243;-50
2022/09/07 00:56:20;;;;;;;;;;;20.90;41.90;;;;;;458674;260;2240;-51
2022/09/07 00:58:21;;;;;;;;;;;20.90;41.90;;;;;;458731;260;1212;-51
2022/09/07 01:00:23;;;;;;;;;;;21.00;41.90;;;;;;458516;260;1263;-51
2022/09/07 01:02:24;;;;;;;;;;;20.90;41.80;;;;;;458639;260;1284;-51
2022/09/07 01:04:25;;;;;;;;;;;20.90;41.90;;;;;;458735;260;1377;-50
2022/09/07 01:06:27;;;;;;;;;;;20.90;41.90;;;;;;458549;256;1267;-51
2022/09/07 01:08:28;;;;;;;;;;;20.90;41.90;;;;;;458351;260;1252;-51
2022/09/07 01:10:30;;;;;;;;;;;20.90;41.90;;;;;;458491;260;1279;-50
2022/09/07 01:12:31;;;;;;;;;;;20.90;41.90;;;;;;458323;260;1220;-51
2022/09/07 01:14:33;;;;;;;;;;;20.90;41.90;;;;;;458732;260;1347;-51
2022/09/07 01:16:34;;;;;;;;;;;20.90;41.90;;;;;;458636;260;2162;-52
2022/09/07 01:18:35;;;;;;;;;;;20.90;41.80;;;;;;452512;264;1258;-50
2022/09/07 01:20:37;;;;;;;;;;;20.90;41.80;;;;;;458756;260;1151;-50
2022/09/07 01:22:38;;;;;;;;;;;20.90;41.90;;;;;;458652;260;1242;-51
2022/09/07 01:24:39;;;;;;;;;;;20.90;41.80;;;;;;458763;260;1259;-51
2022/09/07 01:26:42;;;;;;;;;;;20.90;41.90;;;;;;458383;260;1172;-51
2022/09/07 01:28:46;;;;;;;;;;;20.90;41.90;;;;;;458717;260;1603;-51
2022/09/07 01:30:43;;;;;;;;;;;20.90;41.90;;;;;;458325;260;2428;-51
2022/09/07 01:32:45;;;;;;;;;;;20.90;41.80;;;;;;458662;260;1256;-50
2022/09/07 01:34:46;;;;;;;;;;;20.90;41.80;;;;;;458778;260;1086;-50
2022/09/07 01:36:47;;;;;;;;;;;20.90;41.90;;;;;;458337;260;2173;-51
2022/09/07 01:38:51;;;;;;;;;;;20.90;41.80;;;;;;458770;260;1332;-51
2022/09/07 01:40:50;;;;;;;;;;;20.90;41.90;;;;;;452853;263;1507;-51
2022/09/07 01:42:51;;;;;;;;;;;20.90;42.00;;;;;;458759;260;1379;-51
2022/09/07 01:44:53;;;;;;;;;;;20.90;42.00;;;;;;458370;260;1232;-51
2022/09/07 01:46:54;;;;;;;;;;;20.90;42.10;;;;;;458321;260;1353;-51
2022/09/07 01:48:55;;;;;;;;;;;20.80;42.00;;;;;;458334;256;1332;-51
2022/09/07 01:50:57;;;;;;;;;;;20.80;41.90;;;;;;458308;260;1261;-51
2022/09/07 01:52:58;;;;;;;;;;;20.90;41.90;;;;;;458668;260;1246;-51
2022/09/07 01:54:59;;;;;;;;;;;20.90;42.00;;;;;;458367;260;1202;-51
2022/09/07 01:57:01;;;;;;;;;;;20.90;41.90;;;;;;458341;256;2131;-51
2022/09/07 01:59:02;;;;;;;;;;;20.90;41.90;;;;;;458758;260;1080;-51
2022/09/07 02:01:03;;;;;;;;;;;20.90;41.80;;;;;;458365;257;1161;-51
2022/09/07 02:03:05;;;;;;;;;;;20.90;42.00;;;;;;458625;260;1273;-51
2022/09/07 02:05:06;;;;;;;;;;;20.90;41.90;;;;;;458737;260;1336;-50
2022/09/07 02:07:08;;;;;;;;;;;20.90;41.90;;;;;;458728;260;1282;-51
2022/09/07 02:09:09;;;;;;;;;;;20.80;41.90;;;;;;458544;260;1321;-52
2022/09/07 02:11:10;;;;;;;;;;;20.90;42.10;;;;;;458730;260;1751;-51
2022/09/07 02:13:12;;;;;;;;;;;20.80;42.20;;;;;;458420;260;1280;-51
2022/09/07 02:15:13;;;;;;;;;;;20.80;42.40;;;;;;458740;260;1297;-51
2022/09/07 02:17:15;;;;;;;;;;;20.80;42.60;;;;;;458265;260;2210;-51
2022/09/07 02:19:16;;;;;;;;;;;20.80;42.60;;;;;;458303;260;2222;-50
2022/09/07 02:21:17;;;;;;;;;;;20.80;42.80;;;;;;458710;260;1375;-51
2022/09/07 02:23:19;;;;;;;;;;;20.70;42.80;;;;;;458430;260;1392;-51
2022/09/07 02:25:20;;;;;;;;;;;20.80;42.90;;;;;;458344;260;1296;-51
2022/09/07 02:27:21;;;;;;;;;;;20.80;43.00;;;;;;458568;260;1272;-50
2022/09/07 02:29:23;;;;;;;;;;;20.80;43.10;;;;;;458375;256;1231;-51
2022/09/07 02:31:24;;;;;;;;;;;20.70;43.10;;;;;;458728;260;1164;-51
2022/09/07 02:33:25;;;;;;;;;;;20.70;43.10;;;;;;458355;260;1274;-51
2022/09/07 02:35:27;;;;;;;;;;;20.70;43.20;;;;;;458366;260;2214;-51
2022/09/07 02:37:28;;;;;;;;;;;20.70;43.30;;;;;;458745;260;1308;-51
2022/09/07 02:39:30;;;;;;;;;;;20.70;43.30;;;;;;458347;260;1297;-51
2022/09/07 02:41:31;;;;;;;;;;;20.70;43.30;;;;;;458748;260;1199;-51
2022/09/07 02:43:32;;;;;;;;;;;20.70;43.30;;;;;;458750;260;1312;-50
2022/09/07 02:45:34;;;;;;;;;;;20.70;43.40;;;;;;458651;260;1359;-51
2022/09/07 02:47:35;;;;;;;;;;;20.70;43.40;;;;;;458732;260;1314;-51
2022/09/07 02:49:36;;;;;;;;;;;20.70;43.40;;;;;;458343;260;1379;-51
2022/09/07 02:51:38;;;;;;;;;;;20.70;43.50;;;;;;458506;260;1346;-50
2022/09/07 02:53:39;;;;;;;;;;;20.70;43.50;;;;;;458330;260;1306;-51
2022/09/07 02:55:41;;;;;;;;;;;20.70;43.50;;;;;;458699;260;2185;-51
2022/09/07 02:57:42;;;;;;;;;;;20.70;43.60;;;;;;458327;260;1301;-51
2022/09/07 02:59:43;;;;;;;;;;;20.70;43.60;;;;;;458393;260;2158;-51
2022/09/07 03:01:45;;;;;;;;;;;20.70;43.70;;;;;;452831;263;1301;-52
2022/09/07 03:03:46;;;;;;;;;;;20.70;43.70;;;;;;458605;260;1403;-50
2022/09/07 03:05:47;;;;;;;;;;;20.70;43.70;;;;;;458632;260;1337;-51
2022/09/07 03:07:49;;;;;;;;;;;20.70;43.80;;;;;;458513;260;1334;-51
2022/09/07 03:09:52;;;;;;;;;;;20.70;43.80;;;;;;458718;260;1296;-51
2022/09/07 03:11:51;;;;;;;;;;;20.70;43.80;;;;;;452248;264;2137;-50
2022/09/07 03:13:53;;;;;;;;;;;20.70;43.90;;;;;;458738;260;1248;-51
2022/09/07 03:15:54;;;;;;;;;;;20.70;43.90;;;;;;452370;264;2213;-51
2022/09/07 03:17:55;;;;;;;;;;;20.70;43.90;;;;;;458499;260;1306;-51
2022/09/07 03:19:57;;;;;;;;;;;20.70;44.00;;;;;;458341;260;1238;-51
2022/09/07 03:21:58;;;;;;;;;;;20.70;44.00;;;;;;458165;260;1660;-51
2022/09/07 03:23:59;;;;;;;;;;;20.70;44.00;;;;;;458711;260;1228;-51
2022/09/07 03:26:01;;;;;;;;;;;20.70;44.00;;;;;;458557;260;1661;-51
2022/09/07 03:28:02;;;;;;;;;;;20.70;44.00;;;;;;458313;260;1281;-51
2022/09/07 03:30:03;;;;;;;;;;;20.70;44.00;;;;;;452708;263;1302;-51
2022/09/07 03:32:05;;;;;;;;;;;20.70;44.10;;;;;;458336;260;1347;-51
2022/09/07 03:34:06;;;;;;;;;;;20.70;44.10;;;;;;458622;260;1324;-51
2022/09/07 03:36:07;;;;;;;;;;;20.70;44.20;;;;;;458708;260;2167;-50
2022/09/07 03:38:09;;;;;;;;;;;20.70;44.10;;;;;;458747;260;1244;-50
2022/09/07 03:40:10;;;;;;;;;;;20.70;44.10;;;;;;458735;260;1224;-50
2022/09/07 03:42:12;;;;;;;;;;;20.70;44.10;;;;;;458403;260;1297;-51
2022/09/07 03:44:13;;;;;;;;;;;20.70;44.20;;;;;;458580;260;1326;-50
2022/09/07 03:46:18;;;;;;;;;;;20.70;44.30;;;;;;458597;260;1339;-51
2022/09/07 03:48:16;;;;;;;;;;;20.70;44.30;;;;;;458675;256;2506;-51
2022/09/07 03:50:17;;;;;;;;;;;20.70;44.30;;;;;;458350;260;1126;-51
2022/09/07 03:52:18;;;;;;;;;;;20.70;44.30;;;;;;458375;260;1077;-50
2022/09/07 03:54:21;;;;;;;;;;;20.70;44.30;;;;;;458614;260;1085;-51
2022/09/07 03:56:21;;;;;;;;;;;20.70;44.40;;;;;;452856;263;2177;-52
2022/09/07 03:58:22;;;;;;;;;;;20.70;44.40;;;;;;458771;260;1293;-51
2022/09/07 04:00:24;;;;;;;;;;;20.70;44.50;;;;;;458361;260;1295;-51
2022/09/07 04:02:25;;;;;;;;;;;20.70;44.40;;;;;;458337;260;2142;-51
2022/09/07 04:04:26;;;;;;;;;;;20.70;44.50;;;;;;458610;260;1258;-50
2022/09/07 04:06:28;;;;;;;;;;;20.70;44.50;;;;;;458751;260;1312;-51
2022/09/07 04:08:29;;;;;;;;;;;20.60;44.50;;;;;;458771;260;1214;-51
2022/09/07 04:10:30;;;;;;;;;;;20.70;44.60;;;;;;458374;260;1225;-51
2022/09/07 04:12:32;;;;;;;;;;;20.70;44.60;;;;;;458562;260;1250;-51
2022/09/07 04:14:33;;;;;;;;;;;20.70;44.60;;;;;;458758;260;1347;-51
2022/09/07 04:16:34;;;;;;;;;;;20.70;44.60;;;;;;458380;260;2225;-50
2022/09/07 04:18:36;;;;;;;;;;;20.70;44.60;;;;;;458769;260;1256;-50
2022/09/07 04:20:37;;;;;;;;;;;20.70;44.60;;;;;;458451;260;1247;-50
2022/09/07 04:22:38;;;;;;;;;;;20.70;44.70;;;;;;458773;260;1319;-51
2022/09/07 04:24:40;;;;;;;;;;;20.70;44.70;;;;;;458311;260;1280;-51
2022/09/07 04:26:42;;;;;;;;;;;20.70;44.70;;;;;;458714;260;1339;-50
2022/09/07 04:28:43;;;;;;;;;;;20.70;44.70;;;;;;458721;260;1326;-51
2022/09/07 04:30:44;;;;;;;;;;;20.70;44.70;;;;;;458722;260;1371;-50
2022/09/07 04:32:46;;;;;;;;;;;20.70;44.80;;;;;;458416;260;1263;-51
2022/09/07 04:34:47;;;;;;;;;;;20.70;44.80;;;;;;458650;260;1460;-51
2022/09/07 04:36:49;;;;;;;;;;;20.70;44.80;;;;;;458468;260;2204;-51
2022/09/07 04:38:50;;;;;;;;;;;20.70;44.80;;;;;;458320;260;1297;-51
2022/09/07 04:40:51;;;;;;;;;;;20.70;44.80;;;;;;458603;260;1282;-50
2022/09/07 04:42:53;;;;;;;;;;;20.70;44.90;;;;;;458588;260;1319;-50
2022/09/07 04:44:54;;;;;;;;;;;20.70;44.90;;;;;;458735;260;1292;-50
2022/09/07 04:46:55;;;;;;;;;;;20.70;44.90;;;;;;458506;260;1397;-51
2022/09/07 04:48:56;;;;;;;;;;;20.70;44.90;;;;;;452866;263;1306;-50
2022/09/07 04:50:58;;;;;;;;;;;20.70;44.90;;;;;;458293;260;1316;-51
2022/09/07 04:52:59;;;;;;;;;;;20.70;45.00;;;;;;458327;260;1350;-51
2022/09/07 04:55:01;;;;;;;;;;;20.70;45.00;;;;;;458321;260;1256;-51
2022/09/07 04:57:02;;;;;;;;;;;20.70;45.00;;;;;;458349;260;2218;-50
2022/09/07 04:59:03;;;;;;;;;;;20.70;45.00;;;;;;458423;260;1285;-51
2022/09/07 05:01:05;;;;;;;;;;;20.70;45.00;;;;;;458693;260;1238;-50
2022/09/07 05:03:06;;;;;;;;;;;20.70;45.00;;;;;;458283;260;1279;-51
2022/09/07 05:05:07;;;;;;;;;;;20.70;45.10;;;;;;458307;260;1310;-50
2022/09/07 05:07:09;;;;;;;;;;;20.70;45.10;;;;;;458325;260;1204;-51
2022/09/07 05:09:10;;;;;;;;;;;20.70;45.10;;;;;;458581;260;1251;-50
2022/09/07 05:11:11;;;;;;;;;;;20.70;45.20;;;;;;458741;260;1439;-51
2022/09/07 05:13:13;;;;;;;;;;;20.70;45.20;;;;;;458716;260;1257;-51
2022/09/07 05:15:14;;;;;;;;;;;20.60;45.10;;;;;;458521;260;1215;-50
2022/09/07 05:17:15;;;;;;;;;;;20.70;45.20;;;;;;458427;260;2182;-51
2022/09/07 05:19:17;;;;;;;;;;;20.70;45.20;;;;;;458306;260;1245;-50
2022/09/07 05:21:18;;;;;;;;;;;20.70;45.30;;;;;;458337;260;1340;-51
2022/09/07 05:23:21;;;;;;;;;;;20.70;45.20;;;;;;458476;260;1180;-50
2022/09/07 05:25:21;;;;;;;;;;;20.70;45.20;;;;;;458418;260;2234;-51
2022/09/07 05:27:22;;;;;;;;;;;20.70;45.20;;;;;;458681;260;1188;-51
2022/09/07 05:29:23;;;;;;;;;;;20.70;45.20;;;;;;458482;260;1285;-51
2022/09/07 05:31:25;;;;;;;;;;;20.70;45.20;;;;;;458323;260;1624;-51
2022/09/07 05:33:26;;;;;;;;;;;20.60;45.20;;;;;;458528;260;1294;-50
2022/09/07 05:35:28;;;;;;;;;;;20.60;45.30;;;;;;458109;260;1211;-51
2022/09/07 05:37:29;;;;;;;;;;;20.70;45.30;;;;;;458311;260;2200;-50
2022/09/07 05:39:30;;;;;;;;;;;20.70;45.30;;;;;;458532;260;1267;-51
2022/09/07 05:41:32;;;;;;;;;;;20.60;45.30;;;;;;458348;260;1252;-50
2022/09/07 05:43:33;;;;;;;;;;;20.60;45.30;;;;;;452515;264;1370;-50
2022/09/07 05:45:35;;;;;;;;;;;20.70;45.40;;;;;;458565;260;1239;-51
2022/09/07 05:47:36;;;;;;;;;;;20.70;45.40;;;;;;458446;260;1234;-50
2022/09/07 05:49:37;;;;;;;;;;;20.70;45.40;;;;;;452491;259;2001;-50
2022/09/07 05:51:38;;;;;;;;;;;20.70;45.40;;;;;;458295;260;1304;-50
2022/09/07 05:53:40;;;;;;;;;;;20.70;45.30;;;;;;458598;260;1244;-51
2022/09/07 05:55:41;;;;;;;;;;;20.70;45.40;;;;;;458505;260;1179;-51
2022/09/07 05:57:42;;;;;;;;;;;20.70;45.40;;;;;;452468;263;2182;-51
2022/09/07 05:59:44;;;;;;;;;;;20.70;45.40;;;;;;457904;260;1554;-50
2022/09/07 06:01:45;;;;;;;;;;;20.60;45.50;;;;;;457965;260;1252;-50
2022/09/07 06:03:46;;;;;;;;;;;20.70;45.50;;;;;;458118;260;1292;-52
2022/09/07 06:05:48;;;;;;;;;;;20.70;45.50;;;;;;458351;260;1311;-50
2022/09/07 06:07:49;;;;;;;;;;;20.70;45.60;;;;;;458592;260;1282;-51
2022/09/07 06:09:50;;;;;;;;;;;20.70;45.70;;;;;;458242;260;1301;-50
2022/09/07 06:11:52;;;;;;;;;;;20.70;45.70;;;;;;458441;260;1183;-51
2022/09/07 06:13:53;;;;;;;;;;;20.70;45.70;;;;;;458219;260;1202;-50
2022/09/07 06:15:54;;;;;;;;;;;20.70;45.60;;;;;;458261;260;1209;-51
2022/09/07 06:17:56;;;;;;;;;;;20.70;45.60;;;;;;458360;260;2178;-52
2022/09/07 06:19:57;;;;;;;;;;;20.70;45.50;;;;;;458242;260;1062;-51
2022/09/07 06:21:58;;;;;;;;;;;20.70;45.50;;;;;;458218;260;1225;-51
2022/09/07 06:24:00;;;;;;;;;;;20.70;45.50;;;;;;458657;260;1217;-50
2022/09/07 06:26:01;;;;;;;;;;;20.70;45.50;;;;;;458613;260;1054;-51
2022/09/07 06:28:02;;;;;;;;;;;20.70;45.40;;;;;;458638;260;1156;-51
2022/09/07 06:30:04;;;;;;;;;;;20.70;45.50;;;;;;458268;260;1301;-51
2022/09/07 06:32:05;;;;;;;;;;;20.70;45.70;;;;;;458427;260;1204;-51
2022/09/07 06:34:07;;;;;;;;;;;20.70;45.60;;;;;;458541;260;1171;-51
2022/09/07 06:36:08;;;;;;;;;;;20.80;45.60;;;;;;452536;263;1804;-50
2022/09/07 06:38:09;;;;;;;;;;;20.80;45.60;;;;;;458385;260;2193;-50
2022/09/07 06:40:11;;;;;;;;;;;20.80;45.70;;;;;;458275;260;1397;-51
2022/09/07 06:42:12;;;;;;;;;;;20.80;45.50;;;;;;458140;260;1147;-52
2022/09/07 06:44:13;;;;;;;;;;;20.80;45.60;;;;;;458325;260;1240;-51
2022/09/07 06:46:15;;;;;;;;;;;20.80;45.60;;;;;;458306;260;1211;-51
2022/09/07 06:48:16;;;;;;;;;;;20.80;45.60;;;;;;458098;260;1528;-50
2022/09/07 06:50:17;;;;;;;;;;;20.80;45.70;;;;;;458081;260;1204;-51
2022/09/07 06:52:19;;;;;;;;;;;20.80;45.70;;;;;;458085;260;1183;-51
2022/09/07 06:54:20;;;;;;;;;;;20.80;45.60;;;;;;457986;260;1261;-51
2022/09/07 06:56:21;;;;;;;;;;;20.70;45.50;;;;;;458032;257;1275;-51
2022/09/07 06:58:23;;;;;;;;;;;20.80;45.60;;;;;;458402;260;2214;-51
2022/09/07 07:00:24;;;;;;;;;;;20.80;45.70;;;;;;458170;256;1370;-51
2022/09/07 07:02:26;;;;;;;;;;;20.80;45.70;;;;;;458113;260;1311;-50
2022/09/07 07:04:28;;;;;;;;;;;20.80;45.60;;;;;;457718;260;1252;-51
2022/09/07 07:06:29;;;;;;;;;;;20.80;45.80;;;;;;457823;260;1335;-51
2022/09/07 07:08:30;;;;;;;;;;;20.80;45.70;;;;;;458037;260;1296;-50
2022/09/07 07:10:32;;;;;;;;;;;20.80;45.70;;;;;;458206;260;1286;-51
2022/09/07 07:12:33;;;;;;;;;;;20.80;45.80;;;;;;458119;260;1202;-51
2022/09/07 07:14:35;;;;;;;;;;;20.80;45.80;;;;;;458074;260;1282;-51
2022/09/07 07:16:36;;;;;;;;;;;20.80;45.70;;;;;;458118;260;1262;-51
2022/09/07 07:18:37;;;;;;;;;;;20.80;45.90;;;;;;458001;260;2221;-51
2022/09/07 07:20:39;;;;;;;;;;;20.80;45.70;;;;;;457957;260;1243;-51
2022/09/07 07:22:40;;;;;;;;;;;20.80;45.70;;;;;;458080;260;1261;-50
2022/09/07 07:24:42;;;;;;;;;;;20.80;45.90;;;;;;458049;260;1223;-50
2022/09/07 07:26:47;;;;;;;;;;;20.80;45.90;;;;;;458101;260;2287;-50
2022/09/07 07:28:45;;;;;;;;;;;20.80;45.80;;;;;;452173;263;1604;-50
2022/09/07 07:30:46;;;;;;;;;;;20.80;45.80;;;;;;457911;260;1242;-50
2022/09/07 07:32:47;;;;;;;;;;;20.80;45.70;;;;;;458145;260;1254;-51
2022/09/07 07:34:49;;;;;;;;;;;20.80;45.80;;;;;;457998;260;1201;-51
2022/09/07 07:36:50;;;;;;;;;;;20.80;45.90;;;;;;457873;258;1677;-51
2022/09/07 07:38:51;;;;;;;;;;;20.80;45.80;;;;;;458123;260;2213;-50
2022/09/07 07:40:53;;;;;;;;;;;20.80;45.90;;;;;;458142;260;1253;-51
2022/09/07 07:42:55;;;;;;;;;;;20.80;45.90;;;;;;458049;260;1194;-51
2022/09/07 07:44:56;;;;;;;;;;;20.80;45.90;;;;;;458267;256;1230;-51
2022/09/07 07:46:57;;;;;;;;;;;20.80;45.90;;;;;;458243;260;1257;-51
2022/09/07 07:48:59;;;;;;;;;;;20.80;45.90;;;;;;458218;260;1267;-51
2022/09/07 07:51:00;;;;;;;;;;;20.80;45.90;;;;;;458426;260;1313;-51
2022/09/07 07:53:01;;;;;;;;;;;20.80;45.90;;;;;;457946;260;1235;-50
2022/09/07 07:55:03;;;;;;;;;;;20.80;46.00;;;;;;458054;260;1261;-51
2022/09/07 07:57:04;;;;;;;;;;;20.80;45.90;;;;;;452220;259;1225;-50
2022/09/07 07:59:06;;;;;;;;;;;20.80;45.90;;;;;;458160;256;2186;-51
2022/09/07 08:01:07;;;;;;;;;;;20.80;45.90;;;;;;458026;256;1182;-50
2022/09/07 08:03:09;;;;;;;;;;;20.80;46.10;;;;;;457907;256;1236;-51
2022/09/07 08:05:10;;;;;;;;;;;20.80;46.00;;;;;;457913;256;1395;-51
2022/09/07 08:07:11;;;;;;;;;;;20.80;45.90;;;;;;458028;260;1333;-51
2022/09/07 08:09:13;;;;;;;;;;;20.80;46.10;;;;;;458030;256;1254;-51
2022/09/07 08:11:16;;;;;;;;;;;20.80;45.90;;;;;;458195;256;1255;-50
2022/09/07 08:13:17;;;;;;;;;;;20.80;45.90;;;;;;452196;264;1338;-50
2022/09/07 08:15:18;;;;;;;;;;;20.80;45.90;;;;;;452215;263;2195;-50
2022/09/07 08:17:19;;;;;;;;;;;20.80;46.00;;;;;;457912;260;1264;-51
2022/09/07 08:19:21;;;;;;;;;;;20.80;45.90;;;;;;457890;260;2213;-51
2022/09/07 08:21:22;;;;;;;;;;;20.80;45.90;;;;;;458082;260;1203;-50
2022/09/07 08:23:23;;;;;;;;;;;20.80;46.00;;;;;;458049;260;1169;-51
2022/09/07 08:25:25;;;;;;;;;;;20.80;46.20;;;;;;457905;260;1096;-51
2022/09/07 08:27:26;;;;;;;;;;;20.80;46.00;;;;;;457940;256;1158;-51
2022/09/07 08:29:27;;;;;;;;;;;20.80;46.10;;;;;;458047;260;1285;-51
2022/09/07 08:31:29;;;;;;;;;;;20.80;45.90;;;;;;452137;263;1234;-51
2022/09/07 08:33:30;;;;;;;;;;;20.80;46.10;;;;;;457982;260;1182;-50
2022/09/07 08:35:31;;;;;;;;;;;20.80;46.00;;;;;;457953;260;1115;-50
2022/09/07 08:37:33;;;;;;;;;;;20.80;46.20;;;;;;458129;259;1274;-51
2022/09/07 08:39:35;;;;;;;;;;;20.80;46.00;;;;;;457976;260;2198;-50
2022/09/07 08:41:36;;;;;;;;;;;20.80;46.10;;;;;;457952;256;1277;-50
2022/09/07 08:43:37;;;;;;;;;;;20.80;46.20;;;;;;458048;256;1187;-51
2022/09/07 08:45:39;;;;;;;;;;;20.80;46.30;;;;;;457855;260;1195;-51
2022/09/07 08:47:40;;;;;;;;;;;20.90;46.30;;;;;;457990;260;1239;-51
2022/09/07 08:49:41;;;;;;;;;;;20.90;46.20;;;;;;457895;256;1572;-51
2022/09/07 08:51:43;;;;;;;;;;;20.90;46.00;;;;;;458025;260;1196;-51
2022/09/07 08:53:44;;;;;;;;;;;20.90;46.00;;;;;;457973;256;1207;-51
2022/09/07 08:55:45;;;;;;;;;;;20.90;46.10;;;;;;458050;260;1271;-50
2022/09/07 08:57:47;;;;;;;;;;;20.90;46.00;;;;;;457818;260;2178;-51
2022/09/07 08:59:48;;;;;;;;;;;20.90;46.10;;;;;;457942;260;1153;-50
2022/09/07 09:01:49;;;;;;;;;;;20.90;46.10;;;;;;457950;256;1205;-52
2022/09/07 09:03:51;;;;;;;;;;;20.90;46.10;;;;;;457999;260;1156;-52
2022/09/07 09:05:52;;;;;;;;;;;20.90;46.20;;;;;;458031;256;1254;-51
2022/09/07 09:07:53;;;;;;;;;;;20.90;46.10;;;;;;458169;260;1948;-51
2022/09/07 09:09:55;;;;;;;;;;;20.90;46.20;;;;;;458116;256;1265;-51
2022/09/07 09:11:56;;;;;;;;;;;20.90;46.10;;;;;;458036;260;1288;-50
2022/09/07 09:13:58;;;;;;;;;;;20.90;46.10;;;;;;458013;260;1337;-51
2022/09/07 09:15:59;;;;;;;;;;;20.90;46.10;;;;;;452119;264;2191;-51
2022/09/07 09:18:00;;;;;;;;;;;20.90;46.20;;;;;;458097;260;2194;-50
2022/09/07 09:20:01;;;;;;;;;;;20.90;46.20;;;;;;458012;260;1287;-50
2022/09/07 09:22:03;;;;;;;;;;;20.90;46.20;;;;;;458343;260;1425;-51
2022/09/07 09:24:04;;;;;;;;;;;20.90;46.20;;;;;;458026;260;1278;-51
2022/09/07 09:26:05;;;;;;;;;;;20.90;46.20;;;;;;458103;260;1234;-51
2022/09/07 09:28:07;;;;;;;;;;;20.90;46.20;;;;;;458256;260;1253;-52
2022/09/07 09:30:08;;;;;;;;;;;20.90;46.20;;;;;;457967;260;1212;-50
2022/09/07 09:32:09;;;;;;;;;;;20.80;46.20;;;;;;458041;260;1268;-50
2022/09/07 09:34:11;;;;;;;;;;;20.90;46.30;;;;;;458067;260;1218;-51
2022/09/07 09:36:12;;;;;;;;;;;20.90;46.20;;;;;;458068;256;1280;-51
2022/09/07 09:38:13;;;;;;;;;;;20.90;46.20;;;;;;458307;260;2213;-51
2022/09/07 09:40:15;;;;;;;;;;;20.80;46.10;;;;;;458195;256;1340;-50
2022/09/07 09:42:16;;;;;;;;;;;20.80;46.20;;;;;;458027;256;1201;-51
2022/09/07 09:44:18;;;;;;;;;;;20.90;46.20;;;;;;458039;256;1214;-50
2022/09/07 09:46:19;;;;;;;;;;;20.90;46.30;;;;;;458028;256;1167;-50
2022/09/07 09:48:20;;;;;;;;;;;20.90;46.40;;;;;;458211;256;1220;-51
2022/09/07 09:50:22;;;;;;;;;;;20.90;46.00;;;;;;458071;260;1268;-50
2022/09/07 09:52:23;;;;;;;;;;;20.90;46.10;;;;;;458022;260;1274;-51
2022/09/07 09:54:25;;;;;;;;;;;20.90;46.10;;;;;;457882;260;1367;-52
2022/09/07 09:56:26;;;;;;;;;;;20.90;46.20;;;;;;457998;260;1924;-51
2022/09/07 09:58:28;;;;;;;;;;;20.90;46.40;;;;;;457906;260;2178;-51
2022/09/07 10:00:29;;;;;;;;;;;20.90;46.20;;;;;;458122;260;1164;-50
2022/09/07 10:02:30;;;;;;;;;;;20.80;46.20;;;;;;458081;260;1231;-50
2022/09/07 10:04:33;;;;;;;;;;;20.90;46.30;;;;;;457943;260;1299;-50
2022/09/07 10:06:33;;;;;;;;;;;20.80;46.30;;;;;;452074;264;1622;-50
2022/09/07 10:08:35;;;;;;;;;;;20.90;46.20;;;;;;457937;260;1327;-52
2022/09/07 10:10:35;;;;;;;;;;;20.90;46.40;;;;;;457907;260;1964;-51
2022/09/07 10:12:37;;;;;;;;;;;20.90;46.20;;;;;;457914;256;1280;-51
2022/09/07 10:14:38;;;;;;;;;;;20.90;46.20;;;;;;457950;260;1309;-50
2022/09/07 10:16:40;;;;;;;;;;;20.90;46.30;;;;;;457995;260;1313;-51
2022/09/07 10:18:41;;;;;;;;;;;20.90;46.10;;;;;;458057;260;2195;-51
2022/09/07 10:20:42;;;;;;;;;;;20.90;46.30;;;;;;458300;256;1184;-51
2022/09/07 10:22:43;;;;;;;;;;;20.90;46.40;;;;;;458108;260;1325;-50
2022/09/07 10:24:45;;;;;;;;;;;20.90;46.30;;;;;;457988;260;1223;-52
2022/09/07 10:26:47;;;;;;;;;;;20.90;46.30;;;;;;458126;260;1197;-50
2022/09/07 10:28:47;;;;;;;;;;;20.90;46.40;;;;;;452453;263;1514;-50
2022/09/07 10:30:49;;;;;;;;;;;20.90;46.30;;;;;;458258;260;1209;-50
2022/09/07 10:32:50;;;;;;;;;;;20.90;46.40;;;;;;458026;260;1237;-51
2022/09/07 10:34:51;;;;;;;;;;;20.90;46.30;;;;;;458098;260;1227;-50
2022/09/07 10:36:53;;;;;;;;;;;20.90;46.40;;;;;;458209;260;1362;-51
2022/09/07 10:38:54;;;;;;;;;;;21.00;46.30;;;;;;457950;260;2185;-50
2022/09/07 10:40:55;;;;;;;;;;;20.90;46.10;;;;;;457559;260;1317;-50
2022/09/07 10:42:57;;;;;;;;;;;20.90;46.30;;;;;;458133;260;1197;-49
2022/09/07 10:44:58;;;;;;;;;;;21.00;46.20;;;;;;458042;260;1193;-51
2022/09/07 10:46:59;;;;;;;;;;;21.00;46.20;;;;;;457921;260;1248;-50
2022/09/07 15:13:50;;;;;;;;;;;21.30;46.10;;;;;;455753;245;2705;-52
2022/09/07 15:15:51;;;;;;;;;;;21.30;46.10;;;;;;452343;263;1243;-51
2022/09/07 15:17:52;;;;;;;;;;;21.30;46.00;;;;;;452554;263;1224;-51
2022/09/07 15:19:54;;;;;;;;;;;21.30;45.90;;;;;;452421;263;2267;-51
2022/09/07 15:21:55;;;;;;;;;;;21.30;45.90;;;;;;452481;263;1284;-51
2022/09/07 15:23:57;;;;;;;;;;;21.30;45.70;;;;;;452573;263;1087;-51
2022/09/07 15:25:58;;;;;;;;;;;21.30;45.80;;;;;;452699;263;1109;-51
2022/09/07 15:28:00;;;;;;;;;;;21.30;45.70;;;;;;452581;263;1098;-51
2022/09/07 15:30:01;;;;;;;;;;;21.30;45.60;;;;;;452502;263;1235;-51
2022/09/07 15:32:02;;;;;;;;;;;21.30;45.70;;;;;;452464;263;1162;-51
2022/09/07 15:34:06;;;;;;;;;;;21.30;45.60;;;;;;452464;263;1139;-51
2022/09/07 15:36:05;;;;;;;;;;;21.30;45.50;;;;;;452311;263;2363;-51
2022/09/07 15:38:06;;;;;;;;;;;21.30;45.50;;;;;;452504;263;1194;-52
2022/09/07 15:40:08;;;;;;;;;;;21.30;45.50;;;;;;452405;263;2186;-52
2022/09/07 15:42:10;;;;;;;;;;;21.30;45.50;;;;;;452328;263;1170;-51
2022/09/07 15:44:10;;;;;;;;;;;21.30;45.40;;;;;;452455;263;1830;-52
2022/09/07 15:46:12;;;;;;;;;;;21.30;45.40;;;;;;452841;262;1144;-51
2022/09/07 15:48:13;;;;;;;;;;;21.30;45.40;;;;;;452640;263;1165;-52
2022/09/07 15:50:14;;;;;;;;;;;21.20;45.40;;;;;;452698;262;1073;-51
2022/09/07 15:52:16;;;;;;;;;;;21.30;45.60;;;;;;452955;263;1170;-51
2022/09/07 15:54:18;;;;;;;;;;;21.20;45.60;;;;;;452600;262;1140;-51
2022/09/07 15:56:18;;;;;;;;;;;21.20;45.50;;;;;;452520;263;2651;-51
2022/09/07 15:58:20;;;;;;;;;;;21.20;45.60;;;;;;452913;263;1111;-52
2022/09/07 16:00:21;;;;;;;;;;;21.20;45.60;;;;;;452499;263;2201;-51
2022/09/07 16:02:22;;;;;;;;;;;21.20;45.40;;;;;;452868;263;1134;-52
2022/09/07 16:04:24;;;;;;;;;;;21.20;45.40;;;;;;452958;263;1175;-52
2022/09/07 16:06:25;;;;;;;;;;;21.20;45.40;;;;;;453028;263;1116;-52
2022/09/07 16:08:27;;;;;;;;;;;21.20;45.30;;;;;;453025;263;1152;-52
2022/09/07 16:10:28;;;;;;;;;;;21.20;45.30;;;;;;452555;263;1204;-51
2022/09/07 16:12:30;;;;;;;;;;;21.20;45.30;;;;;;453025;263;1122;-51
2022/09/07 16:14:31;;;;;;;;;;;21.20;45.20;;;;;;453007;263;1170;-52
2022/09/07 16:16:32;;;;;;;;;;;21.20;45.30;;;;;;452987;263;1045;-52
2022/09/07 16:18:33;;;;;;;;;;;21.20;45.20;;;;;;453023;263;1245;-51
2022/09/07 16:20:35;;;;;;;;;;;21.20;45.20;;;;;;452849;263;2212;-52
2022/09/07 16:22:36;;;;;;;;;;;21.20;45.10;;;;;;453069;262;1113;-51